NCAR-RAP Real-Time Weather Data

Output produced by METARs form (10 April 2020  06:54 UTC)
found at http://weather.rap.ucar.edu/surface/
 
KSAT 100651Z 34004KT 10SM BKN170 BKN250 19/15 A2994 RMK AO2 SLP122 T01890150 $
KSAT 100551Z 01006KT 10SM BKN140 BKN250 19/14 A2994 RMK AO2 SLP121 60000 T01940144 10239 20194 403170194 50004 $
KSAT 100451Z 01006KT 10SM BKN150 BKN250 20/16 A2996 RMK AO2 SLP126 T02000156 $
KSAT 100351Z 07006KT 10SM FEW040 BKN130 BKN230 21/16 A2995 RMK AO2 SLP125 T02060156 $
KSAT 100251Z 09008KT 10SM FEW040 BKN120 21/16 A2993 RMK AO2 SLP118 60000 T02060156 51031 $
KSAT 100151Z 04009KT 10SM FEW040 BKN110 BKN250 21/16 A2991 RMK AO2 LTG DSNT SE AND S RAE0056 SLP112 CB FRQ LTGICCG DSNT SE-S MOVG E P0000 T02110161 $
KSAT 100051Z 03010KT 10SM -RA FEW040 BKN110 OVC250 22/16 A2987 RMK AO2 LTG DSNT SE AND S RAB16 TSB17E50 SLP098 CB DSNT E-SE AND SW MOVG NE P0000 T02170161 $
KSAT 100019Z 08010G17KT 10SM -TSRA SCT040 BKN085 OVC120 23/16 A2988 RMK AO2 LTG DSNT NE-S RAB16 TSB17 WSHFT 17 FRQ LTGICCG TS DSNT ALQDS MOVG NE P0000 T02280156 $
KSAT 092351Z 01018G27KT 10SM SCT050 BKN085 OVC120 24/16 A2984 RMK AO2 PK WND 02027/2349 LTG DSNT ALQDS RAE24 TSE27 SLP086 CB SHRA DSNT ALQDS MOVG NE P0000 60000 T02390156 10317 20239 53009 $
KSAT 092328Z 01013G25KT 10SM SCT050 BKN085 OVC110 24/17 A2984 RMK AO2 LTG DSNT SE AND SW AND NW RAE24 TSE27 PRESRR CB SHRA DSNT ALQDS MOVG NE P0000 T02440167 $
KSAT 092251Z 01009G21KT 10SM -TSRA SCT040 BKN090 OVC250 26/19 A2981 RMK AO2 PK WND 02026/2155 LTG DSNT ALQDS RAB47 TSB47 SLP078 OCNL LTGICCG TS DSNT ALQDS MOVG NE P0000 T02560189 $
KSAT 092205Z 36014G23KT 10SM BKN055 BKN120 OVC250 27/19 A2981 RMK AO2 PK WND 02026/2155 LTG DSNT W CB DSNT W MOVG E T02720189
KSAT 092151Z 36004KT 10SM SCT050 BKN110 OVC250 31/19 A2979 RMK AO2 SLP068 VCSH N SHRA DSNT SE T03060194
KSAT 092051Z 33009KT 10SM SCT040 BKN190 OVC250 29/19 A2981 RMK AO2 SLP075 CB DSNT NE MOVG E T02890189 56021
KSAT 092030Z 32013G19KT 10SM SCT040 BKN190 OVC250 31/22 A2981 RMK AO2 LTG DSNT N AND NE WSHFT 29 CB DSNT NE MOVG E T03060217
KSAT 091951Z 21007KT 10SM FEW040 SCT190 OVC250 31/22 A2982 RMK AO2 LTG DSNT W-N SLP080 CB DSNT W-N MOVG E T03060222
KSAT 091851Z 17008KT 10SM FEW040 SCT190 BKN250 31/22 A2985 RMK AO2 LTG DSNT NW SLP088 CB DSNT NW MOVG E T03060222
KSAT 091826Z 17007G15KT 10SM FEW040 SCT190 BKN250 31/23 A2985 RMK AO2 T03060228
KSAT 091751Z 14003KT 10SM BKN190 BKN250 31/23 A2987 RMK AO2 SLP096 T03110228 10311 20217 58013
KSAT 091651Z 24005KT 10SM BKN190 OVC250 28/22 A2990 RMK AO2 SLP108 T02830222
KSAT 091551Z 00000KT 9SM BKN190 BKN250 27/23 A2991 RMK AO2 SLP110 T02670228
KSAT 091451Z 00000KT 8SM BKN180 BKN250 25/22 A2991 RMK AO2 SLP110 T02500222 51007
KSAT 091351Z 31003KT 8SM BKN170 BKN250 23/21 A2990 RMK AO2 SLP108 T02330211
KSAT 091251Z 00000KT 8SM BKN170 BKN250 22/21 A2990 RMK AO2 SLP106 T02170206
KSAT 091151Z 00000KT 7SM BKN180 22/21 A2989 RMK AO2 SLP103 T02170206 10250 20211 53004
KSAT 091051Z 00000KT 10SM BKN180 BKN250 22/21 A2988 RMK AO2 SLP098 T02170206
KSAT 090951Z 00000KT 8SM BKN200 23/21 A2987 RMK AO2 SLP095 T02280211
KSAT 090851Z 29003KT 8SM SCT220 23/21 A2988 RMK AO2 SLP098 T02280211 58008